Strona główna
METAR-TAF:

METAR-TAF

Lotnisko :

Lannion, Francja

Szerokość geograficzna: 48-45N, Długość geograficzna: 003-28W, wysokość: 89 m

Aktualna obserwacja pogody

Raport powstał 20 minut temu, godzina 12:30 UTC
Wiatr 10 kt od zachód, zmienny między zachodnio-południowy zachód i zachodnio-północny zachód
Temperatura 20°C
Wilgotność 60%
Ciśnienie 1016 hPa
Widzialność 10 km lub więcej
Brak chmur poniżej 1500 m i brak chmur cumulonimbus

METAR: LFRO 171230Z AUTO 28010KT 240V300 CAVOK 20/12 Q1016

czas: 14:50 (12:50 UTC)


TAF: brakujący

Obserwacja i prognoza pogody dla ponad 4000 lotnisk (raport METAR i TAF).

Dostępne stacje oznaczono żółtymi i czerwonymi punktami na mapie.

Najedź kursorem aby zobaczyć nazwę stacji.

Kliknij aby zobaczyć obserwacje i prognozy pogody.

Aby zmienić mapę: kliknij na zielony przycisk z czarnym krzyżykiem, aby powiększyć; na zielony przycisk z myślnikiem, aby pomniejszyć; na zielone strzałki, aby przejść do map sąsiednich.


METAR-TAF: